TimeEDT,TemperatureF,Dew PointF,Humidity,Sea Level PressureIn,VisibilityMPH,Wind Direction,Wind SpeedMPH,Gust SpeedMPH,PrecipitationIn,Events,Conditions,WindDirDegrees,DateUTC
12:53 AM,77.0,66.2,69,30.08,10.0,East,5.8,-,N/A,,Clear,80,2011-10-16 04:53:00
1:53 AM,77.0,66.0,69,30.06,10.0,East,5.8,-,N/A,,Scattered Clouds,80,2011-10-16 05:53:00
2:53 AM,78.1,66.0,66,30.04,10.0,ENE,5.8,-,N/A,,Scattered Clouds,70,2011-10-16 06:53:00
3:53 AM,77.0,66.9,71,30.03,10.0,ENE,5.8,-,N/A,,Partly Cloudy,60,2011-10-16 07:53:00
4:53 AM,77.0,66.2,69,30.03,10.0,ENE,5.8,-,N/A,,Partly Cloudy,70,2011-10-16 08:53:00
5:53 AM,78.1,66.9,68,30.02,10.0,ENE,6.9,-,N/A,,Clear,70,2011-10-16 09:53:00
6:53 AM,78.1,66.9,68,30.04,10.0,ENE,8.1,-,N/A,,Partly Cloudy,60,2011-10-16 10:53:00
7:53 AM,78.8,66.2,65,30.06,10.0,ENE,10.4,-,N/A,,Partly Cloudy,60,2011-10-16 11:53:00
8:53 AM,79.0,66.9,66,30.07,10.0,ENE,13.8,20.7,N/A,,Partly Cloudy,60,2011-10-16 12:53:00
9:53 AM,81.0,66.0,60,30.09,10.0,ENE,12.7,-,N/A,,Scattered Clouds,70,2011-10-16 13:53:00
10:53 AM,82.0,66.0,58,30.09,10.0,ENE,18.4,24.2,N/A,,Partly Cloudy,70,2011-10-16 14:53:00
11:53 AM,82.0,64.9,56,30.09,10.0,ENE,11.5,21.9,N/A,,Partly Cloudy,70,2011-10-16 15:53:00
12:53 PM,82.9,66.0,56,30.08,10.0,ENE,17.3,-,N/A,,Scattered Clouds,60,2011-10-16 16:53:00
1:53 PM,82.9,66.0,56,30.05,10.0,ENE,16.1,20.7,N/A,,Scattered Clouds,70,2011-10-16 17:53:00
2:53 PM,82.4,66.2,58,30.03,10.0,ENE,15.0,-,N/A,,Partly Cloudy,60,2011-10-16 18:53:00
3:53 PM,82.0,64.0,54,30.02,10.0,ENE,12.7,19.6,N/A,,Partly Cloudy,60,2011-10-16 19:53:00
4:53 PM,81.0,64.9,58,30.02,10.0,ENE,13.8,-,N/A,,Clear,70,2011-10-16 20:53:00
5:53 PM,80.1,64.0,58,30.01,10.0,East,13.8,-,N/A,,Clear,80,2011-10-16 21:53:00
6:53 PM,80.1,64.9,60,30.01,10.0,East,13.8,-,N/A,,Partly Cloudy,80,2011-10-16 22:53:00
7:53 PM,80.1,64.9,60,30.01,10.0,East,12.7,-,N/A,,Clear,80,2011-10-16 23:53:00
8:53 PM,79.0,64.9,62,30.02,10.0,East,9.2,-,N/A,,Clear,80,2011-10-17 00:53:00
9:53 PM,79.0,64.9,62,30.02,10.0,East,13.8,-,N/A,,Clear,90,2011-10-17 01:53:00
10:53 PM,80.1,66.0,62,30.03,10.0,East,11.5,-,N/A,,Clear,90,2011-10-17 02:53:00
11:53 PM,79.0,66.0,64,30.03,10.0,East,9.2,-,N/A,,Partly Cloudy,100,2011-10-17 03:53:00